sensor_id;sensor_type;location;lat;lon;timestamp;P1;durP1;ratioP1;P2;durP2;ratioP2
52041;SDS011;38052;45.944;13.624;2023-07-31T00:01:23;3.70;;;1.30;;
52041;SDS011;38052;45.944;13.624;2023-07-31T00:03:49;2.05;;;0.98;;
52041;SDS011;38052;45.944;13.624;2023-07-31T00:06:15;2.47;;;0.75;;
52041;SDS011;38052;45.944;13.624;2023-07-31T00:08:41;2.80;;;0.57;;
52041;SDS011;38052;45.944;13.624;2023-07-31T00:11:07;5.43;;;1.42;;
52041;SDS011;38052;45.944;13.624;2023-07-31T00:13:34;5.00;;;1.15;;
52041;SDS011;38052;45.944;13.624;2023-07-31T00:16:01;5.68;;;1.58;;
52041;SDS011;38052;45.944;13.624;2023-07-31T00:18:28;3.58;;;1.30;;
52041;SDS011;38052;45.944;13.624;2023-07-31T00:20:54;3.95;;;1.00;;
52041;SDS011;38052;45.944;13.624;2023-07-31T00:23:21;2.20;;;1.08;;
52041;SDS011;38052;45.944;13.624;2023-07-31T00:25:47;5.30;;;0.90;;
52041;SDS011;38052;45.944;13.624;2023-07-31T00:28:14;3.80;;;1.20;;
52041;SDS011;38052;45.944;13.624;2023-07-31T00:30:41;2.60;;;1.10;;
52041;SDS011;38052;45.944;13.624;2023-07-31T00:33:07;4.20;;;0.90;;
52041;SDS011;38052;45.944;13.624;2023-07-31T00:35:34;6.70;;;1.70;;
52041;SDS011;38052;45.944;13.624;2023-07-31T00:38:00;2.47;;;0.95;;
52041;SDS011;38052;45.944;13.624;2023-07-31T00:40:27;2.10;;;0.98;;
52041;SDS011;38052;45.944;13.624;2023-07-31T00:42:53;4.38;;;0.85;;
52041;SDS011;38052;45.944;13.624;2023-07-31T00:45:19;3.40;;;1.00;;
52041;SDS011;38052;45.944;13.624;2023-07-31T00:47:48;3.35;;;0.93;;
52041;SDS011;38052;45.944;13.624;2023-07-31T00:50:14;9.70;;;1.20;;
52041;SDS011;38052;45.944;13.624;2023-07-31T00:52:40;3.78;;;1.20;;
52041;SDS011;38052;45.944;13.624;2023-07-31T00:55:07;3.55;;;1.27;;
52041;SDS011;38052;45.944;13.624;2023-07-31T00:57:34;1.73;;;0.98;;
52041;SDS011;38052;45.944;13.624;2023-07-31T01:00:00;2.70;;;1.23;;
52041;SDS011;38052;45.944;13.624;2023-07-31T01:02:27;7.63;;;1.80;;
52041;SDS011;38052;45.944;13.624;2023-07-31T01:04:53;2.55;;;0.90;;
52041;SDS011;38052;45.944;13.624;2023-07-31T01:07:22;1.75;;;0.93;;
52041;SDS011;38052;45.944;13.624;2023-07-31T01:10:11;5.50;;;1.50;;
52041;SDS011;38052;45.944;13.624;2023-07-31T01:12:38;2.72;;;0.95;;
52041;SDS011;38052;45.944;13.624;2023-07-31T01:15:05;2.40;;;0.80;;
52041;SDS011;38052;45.944;13.624;2023-07-31T01:17:34;1.80;;;1.35;;
52041;SDS011;38052;45.944;13.624;2023-07-31T01:20:02;14.55;;;1.50;;
52041;SDS011;38052;45.944;13.624;2023-07-31T01:22:39;2.97;;;1.08;;
52041;SDS011;38052;45.944;13.624;2023-07-31T01:27:38;2.00;;;0.80;;
52041;SDS011;38052;45.944;13.624;2023-07-31T01:32:36;3.97;;;0.75;;
52041;SDS011;38052;45.944;13.624;2023-07-31T01:35:04;3.50;;;1.05;;
52041;SDS011;38052;45.944;13.624;2023-07-31T01:37:31;2.90;;;1.20;;
52041;SDS011;38052;45.944;13.624;2023-07-31T01:39:57;3.10;;;1.15;;
52041;SDS011;38052;45.944;13.624;2023-07-31T01:42:24;2.50;;;1.30;;
52041;SDS011;38052;45.944;13.624;2023-07-31T01:44:50;2.28;;;1.05;;
52041;SDS011;38052;45.944;13.624;2023-07-31T01:47:17;2.30;;;1.25;;
52041;SDS011;38052;45.944;13.624;2023-07-31T01:49:43;2.90;;;1.05;;
52041;SDS011;38052;45.944;13.624;2023-07-31T01:52:10;5.70;;;1.20;;
52041;SDS011;38052;45.944;13.624;2023-07-31T01:54:36;2.03;;;1.05;;
52041;SDS011;38052;45.944;13.624;2023-07-31T01:57:03;2.97;;;1.10;;
52041;SDS011;38052;45.944;13.624;2023-07-31T01:59:30;6.55;;;1.60;;
52041;SDS011;38052;45.944;13.624;2023-07-31T02:01:57;1.92;;;1.00;;
52041;SDS011;38052;45.944;13.624;2023-07-31T02:04:23;5.35;;;1.30;;
52041;SDS011;38052;45.944;13.624;2023-07-31T02:06:50;3.50;;;1.85;;
52041;SDS011;38052;45.944;13.624;2023-07-31T02:09:16;1.77;;;1.17;;
52041;SDS011;38052;45.944;13.624;2023-07-31T02:11:43;1.40;;;0.65;;
52041;SDS011;38052;45.944;13.624;2023-07-31T02:14:09;2.08;;;0.85;;
52041;SDS011;38052;45.944;13.624;2023-07-31T02:16:36;2.72;;;1.25;;
52041;SDS011;38052;45.944;13.624;2023-07-31T02:19:02;3.80;;;0.93;;
52041;SDS011;38052;45.944;13.624;2023-07-31T02:21:29;4.30;;;1.17;;
52041;SDS011;38052;45.944;13.624;2023-07-31T02:23:55;3.97;;;1.20;;
52041;SDS011;38052;45.944;13.624;2023-07-31T02:26:22;8.77;;;1.95;;
52041;SDS011;38052;45.944;13.624;2023-07-31T02:28:48;2.60;;;1.38;;
52041;SDS011;38052;45.944;13.624;2023-07-31T02:31:15;6.63;;;0.88;;
52041;SDS011;38052;45.944;13.624;2023-07-31T02:33:41;5.35;;;1.02;;
52041;SDS011;38052;45.944;13.624;2023-07-31T02:36:07;2.65;;;1.08;;
52041;SDS011;38052;45.944;13.624;2023-07-31T02:38:33;1.50;;;0.75;;
52041;SDS011;38052;45.944;13.624;2023-07-31T02:41:00;2.17;;;0.80;;
52041;SDS011;38052;45.944;13.624;2023-07-31T02:43:26;3.15;;;1.27;;
52041;SDS011;38052;45.944;13.624;2023-07-31T02:45:53;5.32;;;1.23;;
52041;SDS011;38052;45.944;13.624;2023-07-31T02:48:20;6.50;;;1.00;;
52041;SDS011;38052;45.944;13.624;2023-07-31T02:50:47;6.47;;;1.20;;
52041;SDS011;38052;45.944;13.624;2023-07-31T02:53:13;2.03;;;1.13;;
52041;SDS011;38052;45.944;13.624;2023-07-31T02:55:40;7.22;;;1.10;;
52041;SDS011;38052;45.944;13.624;2023-07-31T02:58:07;6.40;;;1.10;;
52041;SDS011;38052;45.944;13.624;2023-07-31T03:00:33;2.88;;;1.05;;
52041;SDS011;38052;45.944;13.624;2023-07-31T03:03:00;1.95;;;1.15;;
52041;SDS011;38052;45.944;13.624;2023-07-31T03:05:26;2.67;;;1.20;;
52041;SDS011;38052;45.944;13.624;2023-07-31T03:07:53;2.70;;;1.23;;
52041;SDS011;38052;45.944;13.624;2023-07-31T03:10:19;3.95;;;1.00;;
52041;SDS011;38052;45.944;13.624;2023-07-31T03:12:46;3.55;;;1.00;;
52041;SDS011;38052;45.944;13.624;2023-07-31T03:15:13;1.73;;;0.90;;
52041;SDS011;38052;45.944;13.624;2023-07-31T03:17:40;5.88;;;1.17;;
52041;SDS011;38052;45.944;13.624;2023-07-31T03:20:07;1.83;;;1.30;;
52041;SDS011;38052;45.944;13.624;2023-07-31T03:22:35;3.03;;;1.20;;
52041;SDS011;38052;45.944;13.624;2023-07-31T03:25:02;4.68;;;1.27;;
52041;SDS011;38052;45.944;13.624;2023-07-31T03:27:28;3.53;;;0.70;;
52041;SDS011;38052;45.944;13.624;2023-07-31T03:29:54;4.50;;;1.08;;
52041;SDS011;38052;45.944;13.624;2023-07-31T03:32:20;4.63;;;1.40;;
52041;SDS011;38052;45.944;13.624;2023-07-31T03:34:47;4.63;;;1.40;;
52041;SDS011;38052;45.944;13.624;2023-07-31T03:37:13;2.80;;;1.17;;
52041;SDS011;38052;45.944;13.624;2023-07-31T03:39:40;3.42;;;1.48;;
52041;SDS011;38052;45.944;13.624;2023-07-31T03:42:07;3.47;;;1.00;;
52041;SDS011;38052;45.944;13.624;2023-07-31T03:44:33;8.75;;;1.48;;
52041;SDS011;38052;45.944;13.624;2023-07-31T03:46:59;3.88;;;1.40;;
52041;SDS011;38052;45.944;13.624;2023-07-31T03:49:26;3.33;;;1.10;;
52041;SDS011;38052;45.944;13.624;2023-07-31T03:51:53;1.27;;;0.90;;
52041;SDS011;38052;45.944;13.624;2023-07-31T03:54:19;2.47;;;1.15;;
52041;SDS011;38052;45.944;13.624;2023-07-31T03:56:46;5.18;;;1.75;;
52041;SDS011;38052;45.944;13.624;2023-07-31T03:59:12;3.22;;;1.50;;
52041;SDS011;38052;45.944;13.624;2023-07-31T04:01:39;5.03;;;1.45;;
52041;SDS011;38052;45.944;13.624;2023-07-31T04:04:06;4.40;;;1.17;;
52041;SDS011;38052;45.944;13.624;2023-07-31T04:06:32;4.05;;;1.15;;
52041;SDS011;38052;45.944;13.624;2023-07-31T04:08:58;4.22;;;1.88;;
52041;SDS011;38052;45.944;13.624;2023-07-31T04:11:24;2.75;;;1.23;;
52041;SDS011;38052;45.944;13.624;2023-07-31T04:13:51;2.58;;;1.23;;
52041;SDS011;38052;45.944;13.624;2023-07-31T04:16:17;5.38;;;1.25;;
52041;SDS011;38052;45.944;13.624;2023-07-31T04:18:43;3.08;;;1.02;;
52041;SDS011;38052;45.944;13.624;2023-07-31T04:21:10;1.27;;;0.90;;
52041;SDS011;38052;45.944;13.624;2023-07-31T04:23:36;4.15;;;0.98;;
52041;SDS011;38052;45.944;13.624;2023-07-31T04:26:03;2.67;;;1.05;;
52041;SDS011;38052;45.944;13.624;2023-07-31T04:28:29;3.67;;;1.60;;
52041;SDS011;38052;45.944;13.624;2023-07-31T04:30:56;2.15;;;0.90;;
52041;SDS011;38052;45.944;13.624;2023-07-31T04:33:23;3.35;;;1.25;;
52041;SDS011;38052;45.944;13.624;2023-07-31T04:35:50;7.25;;;1.88;;
52041;SDS011;38052;45.944;13.624;2023-07-31T04:38:17;12.63;;;3.15;;
52041;SDS011;38052;45.944;13.624;2023-07-31T04:40:44;12.52;;;2.33;;
52041;SDS011;38052;45.944;13.624;2023-07-31T04:43:10;5.38;;;1.73;;
52041;SDS011;38052;45.944;13.624;2023-07-31T04:45:36;5.53;;;2.03;;
52041;SDS011;38052;45.944;13.624;2023-07-31T04:48:03;6.75;;;2.00;;
52041;SDS011;38052;45.944;13.624;2023-07-31T04:50:29;5.30;;;1.52;;
52041;SDS011;38052;45.944;13.624;2023-07-31T04:52:56;4.32;;;1.23;;
52041;SDS011;38052;45.944;13.624;2023-07-31T04:55:23;7.93;;;1.25;;
52041;SDS011;38052;45.944;13.624;2023-07-31T04:57:50;1.80;;;1.13;;
52041;SDS011;38052;45.944;13.624;2023-07-31T05:00:16;2.40;;;1.48;;
52041;SDS011;38052;45.944;13.624;2023-07-31T05:02:43;5.22;;;1.20;;
52041;SDS011;38052;45.944;13.624;2023-07-31T05:05:10;4.57;;;1.10;;
52041;SDS011;38052;45.944;13.624;2023-07-31T05:07:36;3.75;;;1.20;;
52041;SDS011;38052;45.944;13.624;2023-07-31T05:10:03;3.17;;;1.20;;
52041;SDS011;38052;45.944;13.624;2023-07-31T05:12:30;7.30;;;1.58;;
52041;SDS011;38052;45.944;13.624;2023-07-31T05:14:56;5.93;;;1.40;;
52041;SDS011;38052;45.944;13.624;2023-07-31T05:17:23;5.22;;;1.98;;
52041;SDS011;38052;45.944;13.624;2023-07-31T05:19:50;11.68;;;1.60;;
52041;SDS011;38052;45.944;13.624;2023-07-31T05:22:17;4.80;;;1.25;;
52041;SDS011;38052;45.944;13.624;2023-07-31T05:24:43;6.35;;;1.33;;
52041;SDS011;38052;45.944;13.624;2023-07-31T05:27:09;3.17;;;1.52;;
52041;SDS011;38052;45.944;13.624;2023-07-31T05:29:35;2.30;;;1.00;;
52041;SDS011;38052;45.944;13.624;2023-07-31T05:32:01;1.40;;;1.02;;
52041;SDS011;38052;45.944;13.624;2023-07-31T05:34:29;2.55;;;0.80;;
52041;SDS011;38052;45.944;13.624;2023-07-31T05:36:55;2.45;;;1.27;;
52041;SDS011;38052;45.944;13.624;2023-07-31T05:39:22;4.82;;;1.35;;
52041;SDS011;38052;45.944;13.624;2023-07-31T05:41:49;8.00;;;1.52;;
52041;SDS011;38052;45.944;13.624;2023-07-31T05:44:15;2.35;;;1.25;;
52041;SDS011;38052;45.944;13.624;2023-07-31T05:46:41;3.05;;;1.48;;
52041;SDS011;38052;45.944;13.624;2023-07-31T05:49:07;5.38;;;1.80;;
52041;SDS011;38052;45.944;13.624;2023-07-31T05:51:34;4.53;;;1.33;;
52041;SDS011;38052;45.944;13.624;2023-07-31T05:54:00;3.72;;;1.45;;
52041;SDS011;38052;45.944;13.624;2023-07-31T05:56:27;3.88;;;1.48;;
52041;SDS011;38052;45.944;13.624;2023-07-31T05:58:53;2.25;;;1.10;;
52041;SDS011;38052;45.944;13.624;2023-07-31T06:01:20;2.78;;;1.25;;
52041;SDS011;38052;45.944;13.624;2023-07-31T06:03:46;2.50;;;1.02;;
52041;SDS011;38052;45.944;13.624;2023-07-31T06:06:13;5.88;;;1.45;;
52041;SDS011;38052;45.944;13.624;2023-07-31T06:08:39;2.95;;;1.20;;
52041;SDS011;38052;45.944;13.624;2023-07-31T06:11:06;2.13;;;0.88;;
52041;SDS011;38052;45.944;13.624;2023-07-31T06:13:34;2.08;;;1.15;;
52041;SDS011;38052;45.944;13.624;2023-07-31T06:16:00;5.82;;;1.27;;
52041;SDS011;38052;45.944;13.624;2023-07-31T06:18:30;3.63;;;1.67;;
52041;SDS011;38052;45.944;13.624;2023-07-31T06:20:56;1.80;;;1.02;;
52041;SDS011;38052;45.944;13.624;2023-07-31T06:23:23;4.05;;;0.95;;
52041;SDS011;38052;45.944;13.624;2023-07-31T06:25:50;2.00;;;0.50;;
52041;SDS011;38052;45.944;13.624;2023-07-31T06:28:16;3.88;;;1.05;;
52041;SDS011;38052;45.944;13.624;2023-07-31T06:30:42;2.55;;;0.93;;
52041;SDS011;38052;45.944;13.624;2023-07-31T06:33:09;1.23;;;0.70;;
52041;SDS011;38052;45.944;13.624;2023-07-31T06:35:36;1.85;;;0.70;;
52041;SDS011;38052;45.944;13.624;2023-07-31T06:38:03;2.15;;;0.68;;
52041;SDS011;38052;45.944;13.624;2023-07-31T06:40:29;1.65;;;0.73;;
52041;SDS011;38052;45.944;13.624;2023-07-31T06:42:56;1.73;;;0.60;;
52041;SDS011;38052;45.944;13.624;2023-07-31T06:45:23;2.97;;;0.88;;
52041;SDS011;38052;45.944;13.624;2023-07-31T06:47:49;1.63;;;0.80;;
52041;SDS011;38052;45.944;13.624;2023-07-31T06:50:16;4.40;;;1.05;;
52041;SDS011;38052;45.944;13.624;2023-07-31T06:52:43;2.50;;;0.90;;
52041;SDS011;38052;45.944;13.624;2023-07-31T06:55:16;2.10;;;0.70;;
52041;SDS011;38052;45.944;13.624;2023-07-31T06:57:43;4.90;;;0.65;;
52041;SDS011;38052;45.944;13.624;2023-07-31T07:00:10;1.38;;;0.65;;
52041;SDS011;38052;45.944;13.624;2023-07-31T07:02:36;1.65;;;0.70;;
52041;SDS011;38052;45.944;13.624;2023-07-31T07:05:03;1.95;;;0.60;;
52041;SDS011;38052;45.944;13.624;2023-07-31T07:07:30;5.82;;;1.02;;
52041;SDS011;38052;45.944;13.624;2023-07-31T07:10:00;1.73;;;0.88;;
52041;SDS011;38052;45.944;13.624;2023-07-31T07:12:28;0.82;;;0.60;;
52041;SDS011;38052;45.944;13.624;2023-07-31T07:14:55;3.15;;;1.10;;
52041;SDS011;38052;45.944;13.624;2023-07-31T07:17:23;6.50;;;0.70;;
52041;SDS011;38052;45.944;13.624;2023-07-31T07:19:49;2.25;;;0.60;;
52041;SDS011;38052;45.944;13.624;2023-07-31T07:22:15;3.30;;;0.65;;
52041;SDS011;38052;45.944;13.624;2023-07-31T07:24:42;2.28;;;1.08;;
52041;SDS011;38052;45.944;13.624;2023-07-31T07:27:08;1.88;;;0.77;;
52041;SDS011;38052;45.944;13.624;2023-07-31T07:29:35;2.92;;;0.70;;
52041;SDS011;38052;45.944;13.624;2023-07-31T07:32:01;1.20;;;0.60;;
52041;SDS011;38052;45.944;13.624;2023-07-31T07:34:28;6.40;;;0.93;;
52041;SDS011;38052;45.944;13.624;2023-07-31T07:36:55;0.80;;;0.50;;
52041;SDS011;38052;45.944;13.624;2023-07-31T07:39:22;3.63;;;0.98;;
52041;SDS011;38052;45.944;13.624;2023-07-31T07:41:48;2.53;;;0.50;;
52041;SDS011;38052;45.944;13.624;2023-07-31T07:44:15;4.22;;;0.90;;
52041;SDS011;38052;45.944;13.624;2023-07-31T07:46:41;2.65;;;0.93;;
52041;SDS011;38052;45.944;13.624;2023-07-31T07:49:08;2.00;;;0.80;;
52041;SDS011;38052;45.944;13.624;2023-07-31T07:51:35;1.65;;;0.70;;
52041;SDS011;38052;45.944;13.624;2023-07-31T07:54:01;1.15;;;0.68;;
52041;SDS011;38052;45.944;13.624;2023-07-31T07:56:28;1.40;;;0.95;;
52041;SDS011;38052;45.944;13.624;2023-07-31T07:58:55;1.73;;;0.40;;
52041;SDS011;38052;45.944;13.624;2023-07-31T08:01:21;2.60;;;0.60;;
52041;SDS011;38052;45.944;13.624;2023-07-31T08:03:49;1.42;;;0.50;;
52041;SDS011;38052;45.944;13.624;2023-07-31T08:06:16;2.35;;;0.57;;
52041;SDS011;38052;45.944;13.624;2023-07-31T08:08:43;1.48;;;0.80;;
52041;SDS011;38052;45.944;13.624;2023-07-31T08:11:09;1.00;;;0.60;;
52041;SDS011;38052;45.944;13.624;2023-07-31T08:13:36;2.08;;;0.50;;
52041;SDS011;38052;45.944;13.624;2023-07-31T08:16:03;1.13;;;0.77;;
52041;SDS011;38052;45.944;13.624;2023-07-31T08:18:30;1.42;;;0.77;;
52041;SDS011;38052;45.944;13.624;2023-07-31T08:20:57;1.20;;;0.70;;
52041;SDS011;38052;45.944;13.624;2023-07-31T08:23:23;3.20;;;1.23;;
52041;SDS011;38052;45.944;13.624;2023-07-31T08:25:50;1.40;;;0.90;;
52041;SDS011;38052;45.944;13.624;2023-07-31T08:28:17;1.80;;;0.70;;
52041;SDS011;38052;45.944;13.624;2023-07-31T08:30:44;3.45;;;0.70;;
52041;SDS011;38052;45.944;13.624;2023-07-31T08:33:10;1.33;;;0.68;;
52041;SDS011;38052;45.944;13.624;2023-07-31T08:35:37;1.17;;;0.60;;
52041;SDS011;38052;45.944;13.624;2023-07-31T08:38:03;2.40;;;0.50;;
52041;SDS011;38052;45.944;13.624;2023-07-31T09:09:51;1.20;;;0.73;;
52041;SDS011;38052;45.944;13.624;2023-07-31T09:12:17;0.98;;;0.70;;
52041;SDS011;38052;45.944;13.624;2023-07-31T09:14:45;0.88;;;0.50;;
52041;SDS011;38052;45.944;13.624;2023-07-31T09:17:11;0.77;;;0.60;;
52041;SDS011;38052;45.944;13.624;2023-07-31T09:19:38;1.05;;;0.60;;
52041;SDS011;38052;45.944;13.624;2023-07-31T09:22:05;0.70;;;0.55;;
52041;SDS011;38052;45.944;13.624;2023-07-31T09:24:32;2.08;;;0.80;;
52041;SDS011;38052;45.944;13.624;2023-07-31T09:26:58;2.08;;;0.80;;
52041;SDS011;38052;45.944;13.624;2023-07-31T09:29:25;0.65;;;0.50;;
52041;SDS011;38052;45.944;13.624;2023-07-31T09:31:52;1.40;;;0.75;;
52041;SDS011;38052;45.944;13.624;2023-07-31T09:34:19;1.33;;;0.90;;
52041;SDS011;38052;45.944;13.624;2023-07-31T09:36:46;3.33;;;0.60;;
52041;SDS011;38052;45.944;13.624;2023-07-31T09:39:14;2.03;;;0.60;;
52041;SDS011;38052;45.944;13.624;2023-07-31T09:41:46;2.13;;;0.90;;
52041;SDS011;38052;45.944;13.624;2023-07-31T09:44:12;1.17;;;0.63;;
52041;SDS011;38052;45.944;13.624;2023-07-31T09:46:39;1.80;;;0.60;;
52041;SDS011;38052;45.944;13.624;2023-07-31T09:51:31;3.28;;;0.88;;
52041;SDS011;38052;45.944;13.624;2023-07-31T09:54:03;1.77;;;0.65;;
52041;SDS011;38052;45.944;13.624;2023-07-31T09:56:29;1.02;;;0.52;;
52041;SDS011;38052;45.944;13.624;2023-07-31T09:58:57;3.10;;;0.95;;
52041;SDS011;38052;45.944;13.624;2023-07-31T10:01:24;2.58;;;0.50;;
52041;SDS011;38052;45.944;13.624;2023-07-31T10:03:51;3.50;;;1.00;;
52041;SDS011;38052;45.944;13.624;2023-07-31T10:06:17;1.27;;;0.77;;
52041;SDS011;38052;45.944;13.624;2023-07-31T10:08:44;1.23;;;0.75;;
52041;SDS011;38052;45.944;13.624;2023-07-31T10:11:13;1.48;;;0.93;;
52041;SDS011;38052;45.944;13.624;2023-07-31T10:13:40;1.88;;;0.73;;
52041;SDS011;38052;45.944;13.624;2023-07-31T10:16:07;1.00;;;0.50;;
52041;SDS011;38052;45.944;13.624;2023-07-31T10:18:33;1.27;;;0.60;;
52041;SDS011;38052;45.944;13.624;2023-07-31T10:21:01;1.55;;;1.02;;
52041;SDS011;38052;45.944;13.624;2023-07-31T10:23:28;3.08;;;1.02;;
52041;SDS011;38052;45.944;13.624;2023-07-31T10:25:55;1.48;;;0.75;;
52041;SDS011;38052;45.944;13.624;2023-07-31T10:28:23;1.23;;;0.73;;
52041;SDS011;38052;45.944;13.624;2023-07-31T10:30:50;1.35;;;0.65;;
52041;SDS011;38052;45.944;13.624;2023-07-31T10:33:18;1.10;;;0.60;;
52041;SDS011;38052;45.944;13.624;2023-07-31T10:35:46;3.72;;;1.15;;
52041;SDS011;38052;45.944;13.624;2023-07-31T10:38:13;1.52;;;0.73;;
52041;SDS011;38052;45.944;13.624;2023-07-31T10:40:40;3.35;;;0.80;;
52041;SDS011;38052;45.944;13.624;2023-07-31T10:43:06;1.35;;;0.70;;
52041;SDS011;38052;45.944;13.624;2023-07-31T10:45:42;1.58;;;0.60;;
52041;SDS011;38052;45.944;13.624;2023-07-31T10:48:16;1.92;;;0.82;;
52041;SDS011;38052;45.944;13.624;2023-07-31T10:50:47;1.27;;;0.82;;
52041;SDS011;38052;45.944;13.624;2023-07-31T10:53:30;1.25;;;0.98;;
52041;SDS011;38052;45.944;13.624;2023-07-31T10:56:00;2.55;;;0.73;;
52041;SDS011;38052;45.944;13.624;2023-07-31T10:58:26;1.10;;;0.70;;
52041;SDS011;38052;45.944;13.624;2023-07-31T11:00:56;0.75;;;0.50;;
52041;SDS011;38052;45.944;13.624;2023-07-31T11:03:26;1.10;;;0.68;;
52041;SDS011;38052;45.944;13.624;2023-07-31T11:06:02;3.22;;;1.00;;
52041;SDS011;38052;45.944;13.624;2023-07-31T11:08:50;1.77;;;1.15;;
52041;SDS011;38052;45.944;13.624;2023-07-31T11:11:15;2.88;;;0.65;;
52041;SDS011;38052;45.944;13.624;2023-07-31T11:13:46;1.90;;;0.75;;
52041;SDS011;38052;45.944;13.624;2023-07-31T11:16:17;0.73;;;0.45;;
52041;SDS011;38052;45.944;13.624;2023-07-31T11:18:44;1.48;;;0.73;;
52041;SDS011;38052;45.944;13.624;2023-07-31T11:21:17;0.60;;;0.40;;
52041;SDS011;38052;45.944;13.624;2023-07-31T11:23:47;0.98;;;0.57;;
52041;SDS011;38052;45.944;13.624;2023-07-31T11:26:13;1.02;;;0.60;;
52041;SDS011;38052;45.944;13.624;2023-07-31T11:28:40;1.85;;;0.95;;
52041;SDS011;38052;45.944;13.624;2023-07-31T11:33:36;0.73;;;0.50;;
52041;SDS011;38052;45.944;13.624;2023-07-31T11:36:02;4.03;;;1.00;;
52041;SDS011;38052;45.944;13.624;2023-07-31T11:40:57;3.63;;;0.73;;
52041;SDS011;38052;45.944;13.624;2023-07-31T11:43:23;4.43;;;0.82;;
52041;SDS011;38052;45.944;13.624;2023-07-31T11:45:53;2.25;;;0.93;;
52041;SDS011;38052;45.944;13.624;2023-07-31T11:48:25;5.57;;;0.70;;
52041;SDS011;38052;45.944;13.624;2023-07-31T11:50:57;1.92;;;0.52;;
52041;SDS011;38052;45.944;13.624;2023-07-31T11:56:05;0.82;;;0.50;;
52041;SDS011;38052;45.944;13.624;2023-07-31T11:58:32;3.25;;;0.70;;
52041;SDS011;38052;45.944;13.624;2023-07-31T12:01:00;1.08;;;0.52;;
52041;SDS011;38052;45.944;13.624;2023-07-31T12:03:26;1.45;;;0.70;;
52041;SDS011;38052;45.944;13.624;2023-07-31T12:05:53;1.20;;;0.68;;
52041;SDS011;38052;45.944;13.624;2023-07-31T12:08:21;1.63;;;0.95;;
52041;SDS011;38052;45.944;13.624;2023-07-31T12:10:47;2.47;;;0.85;;
52041;SDS011;38052;45.944;13.624;2023-07-31T12:13:22;1.48;;;0.70;;
52041;SDS011;38052;45.944;13.624;2023-07-31T12:15:48;2.38;;;0.60;;
52041;SDS011;38052;45.944;13.624;2023-07-31T12:18:19;1.88;;;0.57;;
52041;SDS011;38052;45.944;13.624;2023-07-31T12:20:46;2.22;;;0.73;;
52041;SDS011;38052;45.944;13.624;2023-07-31T12:25:41;3.10;;;0.85;;
52041;SDS011;38052;45.944;13.624;2023-07-31T12:28:08;0.93;;;0.63;;
52041;SDS011;38052;45.944;13.624;2023-07-31T12:30:37;2.40;;;0.82;;
52041;SDS011;38052;45.944;13.624;2023-07-31T12:33:04;1.02;;;0.80;;
52041;SDS011;38052;45.944;13.624;2023-07-31T12:35:34;1.65;;;0.70;;
52041;SDS011;38052;45.944;13.624;2023-07-31T12:38:01;1.98;;;0.90;;
52041;SDS011;38052;45.944;13.624;2023-07-31T12:40:28;1.20;;;0.50;;
52041;SDS011;38052;45.944;13.624;2023-07-31T12:42:55;2.22;;;0.80;;
52041;SDS011;38052;45.944;13.624;2023-07-31T12:45:22;1.30;;;0.70;;
52041;SDS011;38052;45.944;13.624;2023-07-31T12:47:48;1.10;;;0.70;;
52041;SDS011;38052;45.944;13.624;2023-07-31T12:50:15;3.05;;;0.68;;
52041;SDS011;38052;45.944;13.624;2023-07-31T12:52:42;1.00;;;0.57;;
52041;SDS011;38052;45.944;13.624;2023-07-31T12:55:08;1.60;;;0.63;;
52041;SDS011;38052;45.944;13.624;2023-07-31T12:57:36;2.92;;;0.70;;
52041;SDS011;38052;45.944;13.624;2023-07-31T13:00:03;1.33;;;0.60;;
52041;SDS011;38052;45.944;13.624;2023-07-31T13:02:29;1.73;;;0.60;;
52041;SDS011;38052;45.944;13.624;2023-07-31T13:04:56;2.38;;;0.70;;
52041;SDS011;38052;45.944;13.624;2023-07-31T13:07:22;1.08;;;0.60;;
52041;SDS011;38052;45.944;13.624;2023-07-31T13:09:48;0.98;;;0.52;;
52041;SDS011;38052;45.944;13.624;2023-07-31T13:12:15;1.55;;;0.60;;
52041;SDS011;38052;45.944;13.624;2023-07-31T13:14:41;1.00;;;0.50;;
52041;SDS011;38052;45.944;13.624;2023-07-31T13:17:09;3.38;;;1.00;;
52041;SDS011;38052;45.944;13.624;2023-07-31T13:19:35;1.17;;;0.60;;
52041;SDS011;38052;45.944;13.624;2023-07-31T13:22:02;4.47;;;0.73;;
52041;SDS011;38052;45.944;13.624;2023-07-31T13:24:29;3.90;;;0.60;;
52041;SDS011;38052;45.944;13.624;2023-07-31T13:26:56;1.40;;;0.82;;
52041;SDS011;38052;45.944;13.624;2023-07-31T13:29:23;4.07;;;1.20;;
52041;SDS011;38052;45.944;13.624;2023-07-31T13:31:49;2.00;;;0.70;;
52041;SDS011;38052;45.944;13.624;2023-07-31T13:34:16;1.58;;;0.75;;
52041;SDS011;38052;45.944;13.624;2023-07-31T13:36:43;2.88;;;0.68;;
52041;SDS011;38052;45.944;13.624;2023-07-31T13:39:09;1.55;;;0.70;;
52041;SDS011;38052;45.944;13.624;2023-07-31T13:41:36;2.17;;;0.80;;
52041;SDS011;38052;45.944;13.624;2023-07-31T13:44:02;0.65;;;0.43;;
52041;SDS011;38052;45.944;13.624;2023-07-31T13:46:29;2.25;;;0.63;;
52041;SDS011;38052;45.944;13.624;2023-07-31T13:48:57;0.93;;;0.68;;
52041;SDS011;38052;45.944;13.624;2023-07-31T13:51:24;6.60;;;0.80;;
52041;SDS011;38052;45.944;13.624;2023-07-31T13:53:51;4.72;;;0.80;;
52041;SDS011;38052;45.944;13.624;2023-07-31T13:56:17;1.55;;;0.50;;
52041;SDS011;38052;45.944;13.624;2023-07-31T13:58:44;2.58;;;0.82;;
52041;SDS011;38052;45.944;13.624;2023-07-31T14:01:10;1.48;;;0.98;;
52041;SDS011;38052;45.944;13.624;2023-07-31T14:03:37;1.08;;;0.60;;
52041;SDS011;38052;45.944;13.624;2023-07-31T14:06:04;2.42;;;1.10;;
52041;SDS011;38052;45.944;13.624;2023-07-31T14:08:31;1.83;;;0.77;;
52041;SDS011;38052;45.944;13.624;2023-07-31T14:10:57;1.65;;;0.90;;
52041;SDS011;38052;45.944;13.624;2023-07-31T14:13:23;1.10;;;0.70;;
52041;SDS011;38052;45.944;13.624;2023-07-31T14:15:49;3.65;;;1.38;;
52041;SDS011;38052;45.944;13.624;2023-07-31T14:18:16;1.42;;;0.63;;
52041;SDS011;38052;45.944;13.624;2023-07-31T14:20:43;1.60;;;0.80;;
52041;SDS011;38052;45.944;13.624;2023-07-31T14:23:09;1.30;;;0.80;;
52041;SDS011;38052;45.944;13.624;2023-07-31T14:25:35;3.70;;;1.35;;
52041;SDS011;38052;45.944;13.624;2023-07-31T14:28:02;2.00;;;0.93;;
52041;SDS011;38052;45.944;13.624;2023-07-31T14:30:28;3.13;;;0.90;;
52041;SDS011;38052;45.944;13.624;2023-07-31T14:32:54;1.20;;;0.80;;
52041;SDS011;38052;45.944;13.624;2023-07-31T14:35:21;2.17;;;1.00;;
52041;SDS011;38052;45.944;13.624;2023-07-31T14:37:48;3.45;;;0.85;;
52041;SDS011;38052;45.944;13.624;2023-07-31T14:40:14;1.20;;;0.75;;
52041;SDS011;38052;45.944;13.624;2023-07-31T14:42:41;1.80;;;0.68;;
52041;SDS011;38052;45.944;13.624;2023-07-31T14:45:07;3.40;;;1.08;;
52041;SDS011;38052;45.944;13.624;2023-07-31T14:47:35;2.65;;;1.10;;
52041;SDS011;38052;45.944;13.624;2023-07-31T14:50:01;1.85;;;0.75;;
52041;SDS011;38052;45.944;13.624;2023-07-31T14:52:28;1.50;;;0.65;;
52041;SDS011;38052;45.944;13.624;2023-07-31T14:54:54;0.70;;;0.55;;
52041;SDS011;38052;45.944;13.624;2023-07-31T14:57:20;1.60;;;0.90;;
52041;SDS011;38052;45.944;13.624;2023-07-31T14:59:47;0.98;;;0.80;;
52041;SDS011;38052;45.944;13.624;2023-07-31T15:02:14;2.92;;;0.80;;
52041;SDS011;38052;45.944;13.624;2023-07-31T15:04:40;1.38;;;0.93;;
52041;SDS011;38052;45.944;13.624;2023-07-31T15:07:07;1.98;;;0.85;;
52041;SDS011;38052;45.944;13.624;2023-07-31T15:09:33;1.70;;;0.70;;
52041;SDS011;38052;45.944;13.624;2023-07-31T15:12:00;1.25;;;0.70;;
52041;SDS011;38052;45.944;13.624;2023-07-31T15:14:26;4.00;;;0.90;;
52041;SDS011;38052;45.944;13.624;2023-07-31T15:16:56;1.67;;;1.13;;
52041;SDS011;38052;45.944;13.624;2023-07-31T15:19:22;1.90;;;1.08;;